createdAt,value
2023-05-20T00:00:13.762Z,1.35
2023-05-20T00:02:40.337Z,1.38
2023-05-20T00:05:07.164Z,1.48
2023-05-20T00:07:33.619Z,1.30
2023-05-20T00:09:59.994Z,1.20
2023-05-20T00:12:26.342Z,1.35
2023-05-20T00:14:53.932Z,1.38
2023-05-20T00:17:22.171Z,1.40
2023-05-20T00:19:48.524Z,1.13
2023-05-20T00:22:14.814Z,1.40
2023-05-20T00:24:41.090Z,1.30
2023-05-20T00:27:07.389Z,1.55
2023-05-20T00:29:33.800Z,1.48
2023-05-20T00:32:00.502Z,1.23
2023-05-20T00:34:26.882Z,1.40
2023-05-20T00:36:53.297Z,1.65
2023-05-20T00:39:19.689Z,1.48
2023-05-20T00:41:46.071Z,1.58
2023-05-20T00:44:12.438Z,1.38
2023-05-20T00:46:38.930Z,1.33
2023-05-20T00:49:05.631Z,1.45
2023-05-20T00:51:32.110Z,1.45
2023-05-20T00:53:58.653Z,1.50
2023-05-20T00:56:25.049Z,1.60
2023-05-20T00:58:51.547Z,1.65
2023-05-20T01:01:17.942Z,1.67
2023-05-20T01:03:44.459Z,1.60
2023-05-20T01:06:10.958Z,1.65
2023-05-20T01:08:37.380Z,1.30
2023-05-20T01:11:06.494Z,1.35
2023-05-20T01:13:36.820Z,1.45
2023-05-20T01:16:03.978Z,1.30
2023-05-20T01:18:31.326Z,1.50
2023-05-20T01:21:01.567Z,1.95
2023-05-20T01:23:32.805Z,1.40
2023-05-20T01:25:59.206Z,1.00
2023-05-20T01:28:27.063Z,1.50
2023-05-20T01:30:56.262Z,1.10
2023-05-20T01:33:24.498Z,1.55
2023-05-20T01:35:51.238Z,1.23
2023-05-20T01:38:18.470Z,1.67
2023-05-20T01:40:46.161Z,1.48
2023-05-20T01:43:14.602Z,1.52
2023-05-20T01:45:42.337Z,1.70
2023-05-20T01:48:10.130Z,1.10
2023-05-20T01:50:36.489Z,1.25
2023-05-20T01:53:03.152Z,1.30
2023-05-20T01:55:29.492Z,1.40
2023-05-20T01:57:55.869Z,1.10
2023-05-20T02:00:22.182Z,1.58
2023-05-20T02:02:48.684Z,1.13
2023-05-20T02:05:15.119Z,1.30
2023-05-20T02:07:41.512Z,1.30
2023-05-20T02:10:08.135Z,1.30
2023-05-20T02:12:34.607Z,1.20
2023-05-20T02:15:01.023Z,1.13
2023-05-20T02:17:27.446Z,1.33
2023-05-20T02:19:53.860Z,1.35
2023-05-20T02:22:20.627Z,1.00
2023-05-20T02:24:46.961Z,1.40
2023-05-20T02:27:13.387Z,1.20
2023-05-20T02:29:39.771Z,1.23
2023-05-20T02:32:06.302Z,1.60
2023-05-20T02:34:32.977Z,1.48
2023-05-20T02:36:59.420Z,1.17
2023-05-20T02:39:26.001Z,1.30
2023-05-20T02:41:52.388Z,1.58
2023-05-20T02:44:18.717Z,1.40
2023-05-20T02:46:45.013Z,1.25
2023-05-20T02:49:11.368Z,1.42
2023-05-20T02:51:37.753Z,1.35
2023-05-20T02:54:04.251Z,1.60
2023-05-20T02:56:32.473Z,1.50
2023-05-20T02:58:58.867Z,1.38
2023-05-20T03:01:25.553Z,1.13
2023-05-20T03:03:52.501Z,1.20
2023-05-20T03:06:18.892Z,1.30
2023-05-20T03:08:45.194Z,1.27
2023-05-20T03:11:11.806Z,1.40
2023-05-20T03:13:38.119Z,1.58
2023-05-20T03:16:04.709Z,1.30
2023-05-20T03:18:31.210Z,1.25
2023-05-20T03:20:57.649Z,1.20
2023-05-20T03:23:24.041Z,1.42
2023-05-20T03:25:50.713Z,1.63
2023-05-20T03:28:17.045Z,1.10
2023-05-20T03:30:43.385Z,1.35
2023-05-20T03:33:10.627Z,1.40
2023-05-20T03:35:37.133Z,1.30
2023-05-20T03:38:03.748Z,1.10
2023-05-20T03:40:30.129Z,1.17
2023-05-20T03:42:56.534Z,1.27
2023-05-20T03:45:23.301Z,1.20
2023-05-20T03:47:50.333Z,1.25
2023-05-20T03:50:16.759Z,1.27
2023-05-20T03:52:43.119Z,1.20
2023-05-20T03:55:09.724Z,1.33
2023-05-20T03:57:36.561Z,1.35
2023-05-20T04:00:05.794Z,1.13
2023-05-20T04:02:32.190Z,1.10
2023-05-20T04:05:01.336Z,1.25
2023-05-20T04:07:27.676Z,1.08
2023-05-20T04:09:54.004Z,1.30
2023-05-20T04:12:20.979Z,1.17
2023-05-20T04:14:50.086Z,1.25
2023-05-20T04:17:16.542Z,1.30
2023-05-20T04:19:42.835Z,1.27
2023-05-20T04:22:09.259Z,1.50
2023-05-20T04:24:35.602Z,1.20
2023-05-20T04:27:02.016Z,1.60
2023-05-20T04:29:28.499Z,1.40
2023-05-20T04:31:58.622Z,1.33
2023-05-20T04:34:26.817Z,1.05
2023-05-20T04:36:53.369Z,1.25
2023-05-20T04:39:20.579Z,1.25
2023-05-20T04:41:48.455Z,1.10
2023-05-20T04:44:14.805Z,1.38
2023-05-20T04:46:41.594Z,1.17
2023-05-20T04:49:07.953Z,1.02
2023-05-20T04:51:35.440Z,1.42
2023-05-20T04:54:02.117Z,1.10
2023-05-20T04:56:28.462Z,1.40
2023-05-20T04:58:56.048Z,1.15
2023-05-20T05:01:22.434Z,1.02
2023-05-20T05:03:48.807Z,1.30
2023-05-20T05:06:15.162Z,1.13
2023-05-20T05:08:41.562Z,1.38
2023-05-20T05:11:07.886Z,1.17
2023-05-20T05:13:34.184Z,1.48
2023-05-20T05:16:01.321Z,1.30
2023-05-20T05:18:27.844Z,1.10
2023-05-20T05:21:04.330Z,1.20
2023-05-20T05:23:31.029Z,1.30
2023-05-20T05:25:57.421Z,1.30
2023-05-20T05:28:23.750Z,1.30
2023-05-20T05:30:50.151Z,1.38
2023-05-20T05:33:17.319Z,1.20
2023-05-20T05:35:43.896Z,1.48
2023-05-20T05:38:10.528Z,1.40
2023-05-20T05:40:37.122Z,1.20
2023-05-20T05:43:03.506Z,1.15
2023-05-20T05:45:29.877Z,1.30
2023-05-20T05:47:56.220Z,1.30
2023-05-20T05:50:22.686Z,1.30
2023-05-20T05:52:49.020Z,1.30
2023-05-20T05:55:15.521Z,1.60
2023-05-20T05:57:41.833Z,1.33
2023-05-20T06:00:08.438Z,1.27
2023-05-20T06:02:36.216Z,1.02
2023-05-20T06:05:03.437Z,1.17
2023-05-20T06:07:30.115Z,1.38
2023-05-20T06:09:56.893Z,1.35
2023-05-20T06:12:23.252Z,1.30
2023-05-20T06:14:49.641Z,1.70
2023-05-20T06:17:16.059Z,1.45
2023-05-20T06:19:42.398Z,1.50
2023-05-20T06:22:08.919Z,1.60
2023-05-20T06:24:35.359Z,1.40
2023-05-20T06:27:01.718Z,1.60
2023-05-20T06:29:28.689Z,1.23
2023-05-20T06:31:55.089Z,1.38
2023-05-20T06:34:21.426Z,1.67
2023-05-20T06:36:47.766Z,1.27
2023-05-20T06:39:14.149Z,1.15
2023-05-20T06:41:40.538Z,1.58
2023-05-20T06:44:07.612Z,1.33
2023-05-20T06:46:34.497Z,1.20
2023-05-20T06:49:00.902Z,1.48
2023-05-20T06:51:28.057Z,1.58
2023-05-20T06:53:54.661Z,1.63
2023-05-20T06:56:22.177Z,1.77
2023-05-20T06:58:48.522Z,1.30
2023-05-20T07:01:16.628Z,1.45
2023-05-20T07:03:44.449Z,1.33
2023-05-20T07:06:11.087Z,1.60
2023-05-20T07:08:37.460Z,1.38
2023-05-20T07:11:04.956Z,1.20
2023-05-20T07:13:31.290Z,1.70
2023-05-20T07:15:57.737Z,1.60
2023-05-20T07:18:24.242Z,1.58
2023-05-20T07:20:50.690Z,1.38
2023-05-20T07:23:17.019Z,1.38
2023-05-20T07:25:43.480Z,1.83
2023-05-20T07:28:09.768Z,1.27
2023-05-20T07:30:36.104Z,1.30
2023-05-20T07:33:02.559Z,1.42
2023-05-20T07:35:28.955Z,1.48
2023-05-20T07:37:55.873Z,1.63
2023-05-20T07:40:22.264Z,1.42
2023-05-20T07:42:48.620Z,1.40
2023-05-20T07:45:15.045Z,1.80
2023-05-20T07:47:41.511Z,1.90
2023-05-20T07:50:07.992Z,2.75
2023-05-20T07:52:44.193Z,1.63
2023-05-20T07:55:20.750Z,2.20
2023-05-20T07:57:47.056Z,2.35
2023-05-20T08:00:13.472Z,2.30
2023-05-20T08:02:39.911Z,2.35
2023-05-20T08:05:06.455Z,2.00
2023-05-20T08:07:32.761Z,2.30
2023-05-20T08:09:59.183Z,2.60
2023-05-20T08:12:25.679Z,2.33
2023-05-20T08:14:53.751Z,2.13
2023-05-20T08:17:20.102Z,2.30
2023-05-20T08:19:46.432Z,2.15
2023-05-20T08:22:12.988Z,2.05
2023-05-20T08:24:39.373Z,2.88
2023-05-20T08:27:05.822Z,2.38
2023-05-20T08:29:32.167Z,2.00
2023-05-20T08:31:58.473Z,2.50
2023-05-20T08:34:25.088Z,2.53
2023-05-20T08:36:51.372Z,2.10
2023-05-20T08:39:17.671Z,2.28
2023-05-20T08:41:46.773Z,2.50
2023-05-20T08:44:13.182Z,2.50
2023-05-20T08:46:40.498Z,2.35
2023-05-20T08:49:07.602Z,2.13
2023-05-20T08:51:36.204Z,2.33
2023-05-20T08:54:02.772Z,2.20
2023-05-20T08:56:30.932Z,2.15
2023-05-20T08:58:57.612Z,2.38
2023-05-20T09:01:24.697Z,2.22
2023-05-20T09:03:51.229Z,2.60
2023-05-20T09:06:20.992Z,2.70
2023-05-20T09:08:52.995Z,2.75
2023-05-20T09:11:20.144Z,3.63
2023-05-20T09:13:46.473Z,2.60
2023-05-20T09:16:17.104Z,2.53
2023-05-20T09:18:43.602Z,2.70
2023-05-20T09:21:10.058Z,2.40
2023-05-20T09:23:39.561Z,2.55
2023-05-20T09:26:06.092Z,2.90
2023-05-20T09:28:32.501Z,3.35
2023-05-20T09:30:59.725Z,2.65
2023-05-20T09:33:32.457Z,2.33
2023-05-20T09:36:05.315Z,2.08
2023-05-20T09:38:37.718Z,2.33
2023-05-20T09:41:08.060Z,2.05
2023-05-20T09:43:35.302Z,2.15
2023-05-20T09:46:02.718Z,2.30
2023-05-20T09:48:33.950Z,2.20
2023-05-20T09:51:01.746Z,2.20
2023-05-20T09:53:28.375Z,2.00
2023-05-20T09:55:55.193Z,1.90
2023-05-20T09:58:22.414Z,2.25
2023-05-20T10:00:48.991Z,2.20
2023-05-20T10:03:15.521Z,2.15
2023-05-20T10:05:48.904Z,2.28
2023-05-20T10:08:24.397Z,1.92
2023-05-20T10:10:54.381Z,2.25
2023-05-20T10:13:36.043Z,1.90
2023-05-20T10:16:09.578Z,2.10
2023-05-20T10:18:41.859Z,2.47
2023-05-20T10:21:18.001Z,2.22
2023-05-20T10:23:44.484Z,2.50
2023-05-20T10:26:11.167Z,2.40
2023-05-20T10:28:39.908Z,2.67
2023-05-20T10:31:22.264Z,2.15
2023-05-20T10:33:49.358Z,2.33
2023-05-20T10:36:23.194Z,2.40
2023-05-20T10:38:53.557Z,2.40
2023-05-20T10:41:24.753Z,2.42
2023-05-20T10:44:04.272Z,2.63
2023-05-20T10:46:40.135Z,2.60
2023-05-20T10:49:22.468Z,2.53
2023-05-20T10:54:17.954Z,2.80
2023-05-20T10:56:51.822Z,2.83
2023-05-20T10:59:18.529Z,2.70
2023-05-20T11:01:46.587Z,2.70
2023-05-20T11:04:28.754Z,2.72
2023-05-20T11:06:55.279Z,2.72
2023-05-20T11:09:22.128Z,2.83
2023-05-20T11:11:49.085Z,3.03
2023-05-20T11:14:16.339Z,2.78
2023-05-20T11:16:42.845Z,3.03
2023-05-20T11:19:14.361Z,2.97
2023-05-20T11:21:44.507Z,3.08
2023-05-20T11:24:11.100Z,3.15
2023-05-20T11:26:37.561Z,3.47
2023-05-20T11:29:04.741Z,3.20
2023-05-20T11:31:31.975Z,3.20
2023-05-20T11:34:01.616Z,3.17
2023-05-20T11:36:31.259Z,3.42
2023-05-20T11:38:58.851Z,3.00
2023-05-20T11:41:26.017Z,3.45
2023-05-20T11:44:03.310Z,3.63
2023-05-20T11:46:29.829Z,2.90
2023-05-20T11:48:57.083Z,2.78
2023-05-20T11:51:32.286Z,3.10
2023-05-20T11:54:02.224Z,3.10
2023-05-20T11:56:29.554Z,3.35
2023-05-20T11:58:57.310Z,3.40
2023-05-20T12:01:23.918Z,3.45
2023-05-20T12:03:50.861Z,3.60
2023-05-20T12:06:17.779Z,3.33
2023-05-20T12:08:44.322Z,3.53
2023-05-20T12:11:10.808Z,3.25
2023-05-20T12:13:37.420Z,3.85
2023-05-20T12:16:05.735Z,3.97
2023-05-20T12:18:32.848Z,3.75
2023-05-20T12:20:59.605Z,3.28
2023-05-20T12:23:26.420Z,3.63
2023-05-20T12:25:52.752Z,3.38
2023-05-20T12:28:19.141Z,3.60
2023-05-20T12:30:45.499Z,3.47
2023-05-20T12:33:11.782Z,3.80
2023-05-20T12:35:39.299Z,4.30
2023-05-20T12:38:05.858Z,3.58
2023-05-20T12:40:32.464Z,3.55
2023-05-20T12:43:00.798Z,3.50
2023-05-20T12:45:27.115Z,4.15
2023-05-20T12:47:54.556Z,3.40
2023-05-20T12:50:20.985Z,3.72
2023-05-20T12:52:47.510Z,3.92
2023-05-20T12:55:13.970Z,3.83
2023-05-20T12:57:41.050Z,3.70
2023-05-20T13:00:08.353Z,3.75
2023-05-20T13:02:34.904Z,3.42
2023-05-20T13:05:01.523Z,3.42
2023-05-20T13:07:27.855Z,3.08
2023-05-20T13:09:54.276Z,3.30
2023-05-20T13:12:20.894Z,3.22
2023-05-20T13:14:47.269Z,3.28
2023-05-20T13:17:13.602Z,3.20
2023-05-20T13:19:40.053Z,2.92
2023-05-20T13:22:06.813Z,2.65
2023-05-20T13:24:34.223Z,2.80
2023-05-20T13:27:01.339Z,3.05
2023-05-20T13:29:27.785Z,2.70
2023-05-20T13:31:54.154Z,2.88
2023-05-20T13:34:20.638Z,2.65
2023-05-20T13:36:47.789Z,2.88
2023-05-20T13:39:17.109Z,3.03
2023-05-20T13:41:43.493Z,2.88
2023-05-20T13:44:09.888Z,2.53
2023-05-20T13:46:36.334Z,2.67
2023-05-20T13:49:02.766Z,2.50
2023-05-20T13:51:30.873Z,2.70
2023-05-20T13:53:57.297Z,3.03
2023-05-20T13:56:23.781Z,2.58
2023-05-20T13:58:50.135Z,2.55
2023-05-20T14:01:16.601Z,2.72
2023-05-20T14:03:43.232Z,2.47
2023-05-20T14:06:09.745Z,2.47
2023-05-20T14:08:36.019Z,2.38
2023-05-20T14:11:02.366Z,2.50
2023-05-20T14:13:28.829Z,2.60
2023-05-20T14:15:55.600Z,2.30
2023-05-20T14:18:22.012Z,2.65
2023-05-20T14:20:48.479Z,2.40
2023-05-20T14:23:14.904Z,2.45
2023-05-20T14:25:41.254Z,2.42
2023-05-20T14:28:07.668Z,2.70
2023-05-20T14:30:34.426Z,2.42
2023-05-20T14:33:01.171Z,2.70
2023-05-20T14:35:27.629Z,2.50
2023-05-20T14:37:54.042Z,2.63
2023-05-20T14:40:20.644Z,2.70
2023-05-20T14:42:47.002Z,2.65
2023-05-20T14:45:13.369Z,2.60
2023-05-20T14:47:42.627Z,2.42
2023-05-20T14:50:09.146Z,2.60
2023-05-20T14:52:35.541Z,2.13
2023-05-20T14:55:01.915Z,2.67
2023-05-20T14:57:28.287Z,2.30
2023-05-20T14:59:54.734Z,2.47
2023-05-20T15:02:21.203Z,2.40
2023-05-20T15:04:48.625Z,2.20
2023-05-20T15:07:15.213Z,2.40
2023-05-20T15:09:41.980Z,2.55
2023-05-20T15:12:09.027Z,2.70
2023-05-20T15:14:35.464Z,2.35
2023-05-20T15:17:02.881Z,2.45
2023-05-20T15:19:29.944Z,2.20
2023-05-20T15:21:56.366Z,2.50
2023-05-20T15:24:22.695Z,2.38
2023-05-20T15:26:49.039Z,2.50
2023-05-20T15:29:15.449Z,2.20
2023-05-20T15:31:41.803Z,2.47
2023-05-20T15:34:08.234Z,2.47
2023-05-20T15:36:34.657Z,2.45
2023-05-20T15:39:00.962Z,2.17
2023-05-20T15:41:27.322Z,2.30
2023-05-20T15:43:53.722Z,2.10
2023-05-20T15:46:20.142Z,2.28
2023-05-20T15:48:46.427Z,2.45
2023-05-20T15:51:14.543Z,2.40
2023-05-20T15:53:41.587Z,2.03
2023-05-20T15:56:08.724Z,2.30
2023-05-20T15:58:35.078Z,2.80
2023-05-20T16:01:01.621Z,3.05
2023-05-20T16:03:29.020Z,2.38
2023-05-20T16:05:55.669Z,2.38
2023-05-20T16:08:23.893Z,2.13
2023-05-20T16:10:50.872Z,2.50
2023-05-20T16:13:17.390Z,2.08
2023-05-20T16:15:43.814Z,2.50
2023-05-20T16:18:11.037Z,2.22
2023-05-20T16:20:37.448Z,2.35
2023-05-20T16:23:05.205Z,2.35
2023-05-20T16:25:31.501Z,2.28
2023-05-20T16:28:00.983Z,2.17
2023-05-20T16:30:27.442Z,2.47
2023-05-20T16:32:53.866Z,2.50
2023-05-20T16:35:21.066Z,2.67
2023-05-20T16:37:47.556Z,2.10
2023-05-20T16:40:13.920Z,1.95
2023-05-20T16:42:40.431Z,2.20
2023-05-20T16:45:07.086Z,2.30
2023-05-20T16:47:34.174Z,2.08
2023-05-20T16:50:00.756Z,2.30
2023-05-20T16:52:27.167Z,2.40
2023-05-20T16:54:53.519Z,2.00
2023-05-20T16:57:19.887Z,1.83
2023-05-20T16:59:46.343Z,2.55
2023-05-20T17:02:12.670Z,2.30
2023-05-20T17:04:39.123Z,2.78
2023-05-20T17:07:09.668Z,2.50
2023-05-20T17:09:36.891Z,2.60
2023-05-20T17:12:03.998Z,3.17
2023-05-20T17:14:30.491Z,2.72
2023-05-20T17:16:56.933Z,2.30
2023-05-20T17:19:23.473Z,2.80
2023-05-20T17:21:49.884Z,2.67
2023-05-20T17:24:16.213Z,2.53
2023-05-20T17:26:42.808Z,2.50
2023-05-20T17:29:09.117Z,2.95
2023-05-20T17:31:35.430Z,2.40
2023-05-20T17:34:01.997Z,2.53
2023-05-20T17:36:28.540Z,2.88
2023-05-20T17:38:55.231Z,2.38
2023-05-20T17:41:21.965Z,2.58
2023-05-20T17:43:48.345Z,2.60
2023-05-20T17:46:14.897Z,2.40
2023-05-20T17:48:41.484Z,2.55
2023-05-20T17:51:07.873Z,2.35
2023-05-20T17:53:34.247Z,2.40
2023-05-20T17:56:01.261Z,2.17
2023-05-20T17:58:27.736Z,2.65
2023-05-20T18:00:54.322Z,2.60
2023-05-20T18:03:20.938Z,2.58
2023-05-20T18:05:47.643Z,2.20
2023-05-20T18:08:14.067Z,2.85
2023-05-20T18:10:40.687Z,2.25
2023-05-20T18:13:07.082Z,2.65
2023-05-20T18:15:33.597Z,2.60
2023-05-20T18:18:00.078Z,2.65
2023-05-20T18:20:26.486Z,2.40
2023-05-20T18:22:58.202Z,2.60
2023-05-20T18:25:25.618Z,2.67
2023-05-20T18:27:52.446Z,2.63
2023-05-20T18:30:18.894Z,2.55
2023-05-20T18:32:45.274Z,2.55
2023-05-20T18:35:11.765Z,2.75
2023-05-20T18:37:38.138Z,3.00
2023-05-20T18:40:06.473Z,3.05
2023-05-20T18:42:32.883Z,3.15
2023-05-20T18:44:59.274Z,3.35
2023-05-20T18:47:26.192Z,2.97
2023-05-20T18:49:52.586Z,3.25
2023-05-20T18:52:19.337Z,2.70
2023-05-20T18:54:46.044Z,2.95
2023-05-20T18:57:12.457Z,3.47
2023-05-20T18:59:38.738Z,3.10
2023-05-20T19:02:05.152Z,2.63
2023-05-20T19:04:31.556Z,3.00
2023-05-20T19:06:59.003Z,2.90
2023-05-20T19:09:25.735Z,2.90
2023-05-20T19:11:56.569Z,3.15
2023-05-20T19:14:22.938Z,2.80
2023-05-20T19:16:49.393Z,2.80
2023-05-20T19:19:15.980Z,2.92
2023-05-20T19:21:44.121Z,2.63
2023-05-20T19:24:10.552Z,3.22
2023-05-20T19:26:37.069Z,3.00
2023-05-20T19:29:03.423Z,2.92
2023-05-20T19:31:29.870Z,3.10
2023-05-20T19:33:56.276Z,3.20
2023-05-20T19:36:22.584Z,3.08
2023-05-20T19:38:48.857Z,3.10
2023-05-20T19:41:16.125Z,3.00
2023-05-20T19:43:42.502Z,3.10
2023-05-20T19:46:09.069Z,2.80
2023-05-20T19:48:35.567Z,2.95
2023-05-20T19:51:02.540Z,3.10
2023-05-20T19:53:29.136Z,3.10
2023-05-20T19:55:55.534Z,3.00
2023-05-20T19:58:22.466Z,2.72
2023-05-20T20:00:48.840Z,2.80
2023-05-20T20:03:15.135Z,2.97
2023-05-20T20:05:41.433Z,2.70
2023-05-20T20:08:07.955Z,2.78
2023-05-20T20:10:35.155Z,2.88
2023-05-20T20:13:01.485Z,2.80
2023-05-20T20:15:29.129Z,2.92
2023-05-20T20:17:55.637Z,2.75
2023-05-20T20:20:23.546Z,2.88
2023-05-20T20:22:49.990Z,2.97
2023-05-20T20:25:16.349Z,2.70
2023-05-20T20:27:43.936Z,2.67
2023-05-20T20:30:13.326Z,2.50
2023-05-20T20:32:40.541Z,2.85
2023-05-20T20:35:07.952Z,3.22
2023-05-20T20:37:35.380Z,2.50
2023-05-20T20:40:12.936Z,2.53
2023-05-20T20:42:41.502Z,2.72
2023-05-20T20:45:08.153Z,2.75
2023-05-20T20:47:34.491Z,2.53
2023-05-20T20:50:00.935Z,3.15
2023-05-20T20:52:27.400Z,2.70
2023-05-20T20:54:53.741Z,2.50
2023-05-20T20:57:21.870Z,2.72
2023-05-20T20:59:48.373Z,2.58
2023-05-20T21:02:14.792Z,3.08
2023-05-20T21:04:42.704Z,2.58
2023-05-20T21:07:09.476Z,2.65
2023-05-20T21:09:36.640Z,2.60
2023-05-20T21:12:06.461Z,2.72
2023-05-20T21:14:32.896Z,2.33
2023-05-20T21:16:59.334Z,2.75
2023-05-20T21:19:26.629Z,2.40
2023-05-20T21:21:53.111Z,2.65
2023-05-20T21:24:19.769Z,2.50
2023-05-20T21:26:46.270Z,2.75
2023-05-20T21:29:12.653Z,2.67
2023-05-20T21:31:39.029Z,2.83
2023-05-20T21:34:05.433Z,2.80
2023-05-20T21:36:32.290Z,2.50
2023-05-20T21:38:58.618Z,2.60
2023-05-20T21:41:24.979Z,2.50
2023-05-20T21:43:51.584Z,2.40
2023-05-20T21:46:17.982Z,2.45
2023-05-20T21:48:44.370Z,2.40
2023-05-20T21:51:10.683Z,2.50
2023-05-20T21:53:37.025Z,2.30
2023-05-20T21:56:03.520Z,2.28
2023-05-20T21:58:29.922Z,2.55
2023-05-20T22:00:56.391Z,2.35
2023-05-20T22:03:22.918Z,2.80
2023-05-20T22:05:49.683Z,2.50
2023-05-20T22:08:16.947Z,2.45
2023-05-20T22:10:43.896Z,2.50
2023-05-20T22:13:11.021Z,2.33
2023-05-20T22:15:37.545Z,2.58
2023-05-20T22:18:06.733Z,2.40
2023-05-20T22:20:34.068Z,2.28
2023-05-20T22:23:01.020Z,2.72
2023-05-20T22:25:27.367Z,2.83
2023-05-20T22:27:53.714Z,2.53
2023-05-20T22:30:20.045Z,2.40
2023-05-20T22:32:46.461Z,2.45
2023-05-20T22:35:13.708Z,2.50
2023-05-20T22:37:40.040Z,2.70
2023-05-20T22:40:07.156Z,2.60
2023-05-20T22:42:33.432Z,2.35
2023-05-20T22:44:59.745Z,2.83
2023-05-20T22:47:26.317Z,2.60
2023-05-20T22:49:52.654Z,2.58
2023-05-20T22:52:18.960Z,2.50
2023-05-20T22:54:45.377Z,2.45
2023-05-20T22:57:12.195Z,2.50
2023-05-20T22:59:38.922Z,2.97
2023-05-20T23:02:06.223Z,2.80
2023-05-20T23:04:32.671Z,2.72
2023-05-20T23:06:59.506Z,3.13
2023-05-20T23:09:26.089Z,2.33
2023-05-20T23:11:52.437Z,2.55
2023-05-20T23:14:19.958Z,2.60
2023-05-20T23:16:46.498Z,2.58
2023-05-20T23:19:12.912Z,2.97
2023-05-20T23:21:39.873Z,2.50
2023-05-20T23:24:06.390Z,2.70
2023-05-20T23:26:34.431Z,2.50
2023-05-20T23:29:03.507Z,3.13
2023-05-20T23:31:29.938Z,2.33
2023-05-20T23:33:59.348Z,3.08
2023-05-20T23:36:26.018Z,2.50
2023-05-20T23:38:55.101Z,2.80
2023-05-20T23:41:22.434Z,2.95
2023-05-20T23:43:49.014Z,2.65
2023-05-20T23:46:15.533Z,2.90
2023-05-20T23:48:41.886Z,2.42
2023-05-20T23:51:10.213Z,2.60
2023-05-20T23:53:36.664Z,2.90
2023-05-20T23:56:04.208Z,2.75
2023-05-20T23:58:30.730Z,2.85
